Hutchinson Municipal Airport
KHUT : now visible

Airfield :











YOU CAN JOIN US ON...

 
LOGIN :

Register | Disclaimer

   EN    FR    IT 

 









Legend :    VFR   Marginal VFR   IFR   Intensive IFR   Very Intensive IFR
Visi :
Ceiling :
>= 8 km
>= 3000ft
5 to 8 km
1000 to 3000 ft
1500m to 5 km
500 to 1000 ft
800 to 1500m
200 to 500 ft
< 800m
< 200 ft
Symbols :   Thunderstorms  Fog  Heavy snow  Heavy precipitations  Wind > 20 kt







- Airport Elevation : 1543 ft


KHUT - Hutchinson Municipal

CURRENT METAR :
  • 220152Z 17017G26KT 10SM CLR 23/13 A2971 RMK AO2 PK WND 16028/0142 SLP041 T02280133

EXPIRED METARs :
  • 220052Z 17017KT 10SM CLR 24/14 A2969 RMK AO2 PK WND 18036/2358 SLP037 T02390139
  • 212352Z 17023G32KT 10SM CLR 26/13 A2967 RMK AO2 PK WND 18034/2317 SLP030 T02560133 10283 20244 55004

TAF KHUT
Valid from the 22 at 00:00 until the 23 at 00:00 UTC


212337Z 2200/2224 17020G35KT P6SM SCT120
FM220200 16015KT P6SM SCT100 WS020/19045KT
FM220400 17015KT P6SM VCSH BKN100
FM221300 32015KT P6SM SCT060 BKN100
KZKC FIR / North America



MET'MAP, your aeronautical weather chart ! - Copyright ORBIFLY December 2007 - Disclaimer

ORBIFLY MET'MAP TEAM :

Programming & Development : Alexandra Zaïnal
Concept & Development : Baudouin d'Aumeries
Co-Development & Prog : Marc-Olivier Méhu
Technical & hardware support : Manuel Goepfert

Contact : metmap@orbifly.com




SOURCES & CREDITS :

   NOAA       Earth
Advisory